createdAt,value
2023-03-11T00:00:36.814Z,64.60
2023-03-11T00:03:23.443Z,64.98
2023-03-11T00:06:09.546Z,64.72
2023-03-11T00:08:55.154Z,64.91
2023-03-11T00:11:41.847Z,65.04
2023-03-11T00:14:28.211Z,65.16
2023-03-11T00:17:14.029Z,64.75
2023-03-11T00:19:59.558Z,65.04
2023-03-11T00:22:45.507Z,64.86
2023-03-11T00:25:32.772Z,64.91
2023-03-11T00:28:18.669Z,65.11
2023-03-11T00:31:05.009Z,65.13
2023-03-11T00:33:50.878Z,64.97
2023-03-11T00:36:36.870Z,64.95
2023-03-11T00:39:23.436Z,64.99
2023-03-11T00:42:09.733Z,65.13
2023-03-11T00:44:55.650Z,64.93
2023-03-11T00:47:41.714Z,64.86
2023-03-11T00:50:30.699Z,65.19
2023-03-11T00:53:16.353Z,65.20
2023-03-11T00:56:10.065Z,64.80
2023-03-11T00:58:57.745Z,64.91
2023-03-11T01:01:43.752Z,64.99
2023-03-11T01:04:29.806Z,65.05
2023-03-11T01:07:15.719Z,64.81
2023-03-11T01:10:02.797Z,65.06
2023-03-11T01:12:49.253Z,64.68
2023-03-11T01:15:37.010Z,64.99
2023-03-11T01:18:23.224Z,64.84
2023-03-11T01:21:09.184Z,64.43
2023-03-11T01:23:55.074Z,64.82
2023-03-11T01:26:40.878Z,64.74
2023-03-11T01:29:26.861Z,64.65
2023-03-11T01:32:14.672Z,64.79
2023-03-11T01:35:00.539Z,64.74
2023-03-11T01:37:47.049Z,64.75
2023-03-11T01:40:36.667Z,64.69
2023-03-11T01:43:45.333Z,64.48
2023-03-11T01:46:41.677Z,64.79
2023-03-11T01:49:27.746Z,64.63
2023-03-11T01:52:14.883Z,64.58
2023-03-11T01:55:07.603Z,64.65
2023-03-11T01:57:54.903Z,64.41
2023-03-11T02:00:42.338Z,64.39
2023-03-11T02:03:35.227Z,64.43
2023-03-11T02:06:23.100Z,64.65
2023-03-11T02:09:09.329Z,64.40
2023-03-11T02:11:56.318Z,64.38
2023-03-11T02:14:54.601Z,64.74
2023-03-11T02:17:42.588Z,64.32
2023-03-11T02:20:52.849Z,64.36
2023-03-11T02:23:56.838Z,64.54
2023-03-11T02:27:10.597Z,64.48
2023-03-11T02:29:56.955Z,64.15
2023-03-11T02:32:44.245Z,64.32
2023-03-11T02:35:31.666Z,64.45
2023-03-11T02:38:18.873Z,64.21
2023-03-11T02:41:06.684Z,64.39
2023-03-11T02:43:52.677Z,64.24
2023-03-11T02:46:41.625Z,64.31
2023-03-11T02:49:30.132Z,64.08
2023-03-11T02:52:17.415Z,64.29
2023-03-11T02:55:03.858Z,64.35
2023-03-11T02:57:50.419Z,64.35
2023-03-11T03:00:36.333Z,64.42
2023-03-11T03:03:26.572Z,64.32
2023-03-11T03:06:12.367Z,64.33
2023-03-11T03:09:03.357Z,64.28
2023-03-11T03:11:49.748Z,64.53
2023-03-11T03:14:35.665Z,64.12
2023-03-11T03:17:21.614Z,64.51
2023-03-11T03:20:13.072Z,63.97
2023-03-11T03:23:02.642Z,64.21
2023-03-11T03:25:50.877Z,63.92
2023-03-11T03:28:36.850Z,64.27
2023-03-11T03:31:23.273Z,64.07
2023-03-11T03:34:09.343Z,64.44
2023-03-11T03:36:56.065Z,64.13
2023-03-11T03:39:42.309Z,64.23
2023-03-11T03:42:30.115Z,64.39
2023-03-11T03:45:16.204Z,64.23
2023-03-11T03:48:01.897Z,64.22
2023-03-11T03:50:51.983Z,64.04
2023-03-11T03:53:38.150Z,63.76
2023-03-11T03:56:25.208Z,63.87
2023-03-11T03:59:10.992Z,64.28
2023-03-11T04:02:00.795Z,63.69
2023-03-11T04:04:48.948Z,64.21
2023-03-11T04:07:36.129Z,64.49
2023-03-11T04:10:23.913Z,64.09
2023-03-11T04:13:10.486Z,64.05
2023-03-11T04:15:56.554Z,64.89
2023-03-11T04:18:42.772Z,64.71
2023-03-11T04:21:28.622Z,64.24
2023-03-11T04:24:15.558Z,64.44
2023-03-11T04:27:01.951Z,64.53
2023-03-11T04:29:48.271Z,64.13
2023-03-11T04:32:34.248Z,64.13
2023-03-11T04:35:20.699Z,64.35
2023-03-11T04:38:07.318Z,64.38
2023-03-11T04:40:54.859Z,64.03
2023-03-11T04:43:40.830Z,63.95
2023-03-11T04:46:26.940Z,64.44
2023-03-11T04:49:13.054Z,63.92
2023-03-11T04:51:58.854Z,64.12
2023-03-11T04:54:45.728Z,64.23
2023-03-11T04:57:31.942Z,64.16
2023-03-11T05:00:23.011Z,63.73
2023-03-11T05:03:10.527Z,64.04
2023-03-11T05:05:57.385Z,63.75
2023-03-11T05:08:44.347Z,64.14
2023-03-11T05:11:31.201Z,64.57
2023-03-11T05:14:17.132Z,64.36
2023-03-11T05:17:03.073Z,64.08
2023-03-11T05:19:49.473Z,64.16
2023-03-11T05:22:41.075Z,64.33
2023-03-11T05:25:27.270Z,64.40
2023-03-11T05:28:13.436Z,64.21
2023-03-11T05:31:09.316Z,64.26
2023-03-11T05:33:56.376Z,64.20
2023-03-11T05:36:42.801Z,64.54
2023-03-11T05:39:28.937Z,63.94
2023-03-11T05:42:14.429Z,63.99
2023-03-11T05:45:00.772Z,64.20
2023-03-11T05:47:47.742Z,64.48
2023-03-11T05:50:34.849Z,64.23
2023-03-11T05:53:23.302Z,64.51
2023-03-11T05:56:08.913Z,64.28
2023-03-11T05:58:57.889Z,64.64
2023-03-11T06:01:45.726Z,64.41
2023-03-11T06:04:32.244Z,64.55
2023-03-11T06:07:20.255Z,64.54
2023-03-11T06:10:08.029Z,64.50
2023-03-11T06:12:54.171Z,64.38
2023-03-11T06:15:46.421Z,64.37
2023-03-11T06:18:32.720Z,64.23
2023-03-11T06:21:24.188Z,64.04
2023-03-11T06:24:10.114Z,64.32
2023-03-11T06:26:57.062Z,64.50
2023-03-11T06:29:47.106Z,64.10
2023-03-11T06:32:35.507Z,64.28
2023-03-11T06:35:21.285Z,63.84
2023-03-11T06:38:07.516Z,64.10
2023-03-11T06:40:53.630Z,63.54
2023-03-11T06:43:39.759Z,64.40
2023-03-11T06:46:26.760Z,64.05
2023-03-11T06:49:14.382Z,64.06
2023-03-11T06:52:01.265Z,64.13
2023-03-11T06:54:47.711Z,64.14
2023-03-11T06:57:35.537Z,63.93
2023-03-11T07:00:24.404Z,63.89
2023-03-11T07:03:15.155Z,64.20
2023-03-11T07:06:01.653Z,64.05
2023-03-11T07:08:49.136Z,64.03
2023-03-11T07:11:35.032Z,63.86
2023-03-11T07:14:28.805Z,63.99
2023-03-11T07:17:15.771Z,63.75
2023-03-11T07:20:07.631Z,63.84
2023-03-11T07:22:53.802Z,63.95
2023-03-11T07:25:39.407Z,64.00
2023-03-11T07:28:26.074Z,63.87
2023-03-11T07:31:18.582Z,63.63
2023-03-11T07:34:06.447Z,63.89
2023-03-11T07:36:52.176Z,63.85
2023-03-11T07:39:37.874Z,64.00
2023-03-11T07:42:23.919Z,63.96
2023-03-11T07:45:12.739Z,63.69
2023-03-11T07:47:58.393Z,63.82
2023-03-11T07:50:44.145Z,63.63
2023-03-11T07:53:30.093Z,63.75
2023-03-11T07:56:17.249Z,63.41
2023-03-11T07:59:04.442Z,63.17
2023-03-11T08:01:53.515Z,63.57
2023-03-11T08:04:39.172Z,63.83
2023-03-11T08:07:25.250Z,63.89
2023-03-11T08:10:12.972Z,63.87
2023-03-11T08:12:58.842Z,63.77
2023-03-11T08:15:44.878Z,63.67
2023-03-11T08:18:31.149Z,63.88
2023-03-11T08:21:20.127Z,63.77
2023-03-11T08:24:07.017Z,63.83
2023-03-11T08:26:53.236Z,63.88
2023-03-11T08:29:38.856Z,63.70
2023-03-11T08:32:24.861Z,63.79
2023-03-11T08:35:11.404Z,63.47
2023-03-11T08:37:57.449Z,63.33
2023-03-11T08:40:43.195Z,63.37
2023-03-11T08:43:29.044Z,63.03
2023-03-11T08:46:22.393Z,62.97
2023-03-11T08:49:08.623Z,62.86
2023-03-11T08:51:54.826Z,62.85
2023-03-11T08:54:40.449Z,62.65
2023-03-11T08:57:28.251Z,62.75
2023-03-11T09:00:14.436Z,62.65
2023-03-11T09:03:00.211Z,62.82
2023-03-11T09:05:46.119Z,62.66
2023-03-11T09:08:32.230Z,62.77
2023-03-11T09:11:18.878Z,62.71
2023-03-11T09:14:05.405Z,62.30
2023-03-11T09:16:51.126Z,61.93
2023-03-11T09:19:37.191Z,60.86
2023-03-11T09:22:23.251Z,60.62
2023-03-11T09:25:10.471Z,60.12
2023-03-11T09:27:57.365Z,60.67
2023-03-11T09:30:43.099Z,60.42
2023-03-11T09:33:28.908Z,60.42
2023-03-11T09:36:17.116Z,60.69
2023-03-11T09:39:04.206Z,60.56
2023-03-11T09:41:58.265Z,60.53
2023-03-11T09:44:53.479Z,60.12
2023-03-11T09:48:03.452Z,59.42
2023-03-11T09:51:11.905Z,59.00
2023-03-11T09:54:04.544Z,58.65
2023-03-11T09:56:51.027Z,59.22
2023-03-11T09:59:37.590Z,58.99
2023-03-11T10:02:26.746Z,59.00
2023-03-11T10:05:27.851Z,58.89
2023-03-11T10:08:24.593Z,59.36
2023-03-11T10:11:25.265Z,59.32
2023-03-11T10:14:35.408Z,58.94
2023-03-11T10:18:17.506Z,59.01
2023-03-11T10:21:30.423Z,59.03
2023-03-11T10:24:59.178Z,59.07
2023-03-11T10:27:44.730Z,59.08
2023-03-11T10:30:43.806Z,59.08
2023-03-11T10:33:37.678Z,58.91
2023-03-11T10:36:26.522Z,57.86
2023-03-11T10:39:12.643Z,58.69
2023-03-11T10:42:06.377Z,57.61
2023-03-11T10:44:52.693Z,58.56
2023-03-11T10:47:38.468Z,58.04
2023-03-11T10:50:24.492Z,57.79
2023-03-11T10:53:16.245Z,57.73
2023-03-11T10:56:02.081Z,57.84
2023-03-11T10:58:51.239Z,57.88
2023-03-11T11:01:37.031Z,57.62
2023-03-11T11:04:37.779Z,57.04
2023-03-11T11:07:34.032Z,57.64
2023-03-11T11:10:25.143Z,57.22
2023-03-11T11:13:12.882Z,57.67
2023-03-11T11:15:58.706Z,57.36
2023-03-11T11:18:49.266Z,56.83
2023-03-11T11:21:52.491Z,56.72
2023-03-11T11:24:51.942Z,57.49
2023-03-11T11:27:37.627Z,56.93
2023-03-11T11:30:24.039Z,57.00
2023-03-11T11:33:30.887Z,56.96
2023-03-11T11:36:19.512Z,57.79
2023-03-11T11:39:18.062Z,57.44
2023-03-11T11:42:04.139Z,57.46
2023-03-11T11:44:57.781Z,56.31
2023-03-11T11:47:47.751Z,56.21
2023-03-11T11:50:42.441Z,54.30
2023-03-11T11:53:38.614Z,50.88
2023-03-11T11:56:25.885Z,54.56
2023-03-11T11:59:19.061Z,52.35
2023-03-11T12:02:05.155Z,53.18
2023-03-11T12:05:19.961Z,52.02
2023-03-11T12:08:23.522Z,49.97
2023-03-11T12:11:15.059Z,52.64
2023-03-11T12:14:29.619Z,51.83
2023-03-11T12:17:16.936Z,53.20
2023-03-11T12:20:21.372Z,53.10
2023-03-11T12:23:17.730Z,52.85
2023-03-11T12:26:17.444Z,49.41
2023-03-11T12:29:10.699Z,52.23
2023-03-11T12:31:57.515Z,52.60
2023-03-11T12:34:43.420Z,52.11
2023-03-11T12:37:30.887Z,51.82
2023-03-11T12:40:44.788Z,49.63
2023-03-11T12:43:33.922Z,51.95
2023-03-11T12:46:21.913Z,51.84
2023-03-11T12:49:07.914Z,52.22
2023-03-11T12:52:01.286Z,51.15
2023-03-11T12:54:49.422Z,52.32
2023-03-11T12:57:37.556Z,52.23
2023-03-11T13:00:28.583Z,52.21
2023-03-11T13:03:33.093Z,52.33
2023-03-11T13:06:37.003Z,52.21
2023-03-11T13:09:22.684Z,52.38
2023-03-11T13:12:40.488Z,50.42
2023-03-11T13:15:29.549Z,51.57
2023-03-11T13:18:19.543Z,51.95
2023-03-11T13:21:28.037Z,50.67
2023-03-11T13:24:20.114Z,51.86
2023-03-11T13:27:14.694Z,52.53
2023-03-11T13:30:00.407Z,52.35
2023-03-11T13:33:01.436Z,51.29
2023-03-11T13:36:09.196Z,50.51
2023-03-11T13:39:19.021Z,51.24
2023-03-11T13:42:14.640Z,51.95
2023-03-11T13:45:00.806Z,52.56
2023-03-11T13:47:49.618Z,52.19
2023-03-11T13:50:37.521Z,52.37
2023-03-11T13:53:31.058Z,52.86
2023-03-11T13:56:19.110Z,53.14
2023-03-11T13:59:29.730Z,53.14
2023-03-11T14:02:20.658Z,53.25
2023-03-11T14:05:07.362Z,53.72
2023-03-11T14:07:53.723Z,53.88
2023-03-11T14:10:52.270Z,53.94
2023-03-11T14:13:42.213Z,53.97
2023-03-11T14:16:44.417Z,53.92
2023-03-11T14:19:30.669Z,54.26
2023-03-11T14:22:16.714Z,54.06
2023-03-11T14:25:08.445Z,54.21
2023-03-11T14:27:54.564Z,54.27
2023-03-11T14:30:40.302Z,54.24
2023-03-11T14:33:26.551Z,54.46
2023-03-11T14:36:14.093Z,54.71
2023-03-11T14:38:59.803Z,54.94
2023-03-11T14:41:45.659Z,55.23
2023-03-11T14:44:37.796Z,55.36
2023-03-11T14:47:35.836Z,55.96
2023-03-11T14:50:24.524Z,55.04
2023-03-11T14:53:15.694Z,55.73
2023-03-11T14:56:13.755Z,55.32
2023-03-11T14:59:12.594Z,55.59
2023-03-11T15:02:11.771Z,55.34
2023-03-11T15:04:59.508Z,55.83
2023-03-11T15:07:49.007Z,56.30
2023-03-11T15:10:36.981Z,55.68
2023-03-11T15:13:24.312Z,56.00
2023-03-11T15:16:35.892Z,56.24
2023-03-11T15:19:28.665Z,56.39
2023-03-11T15:22:41.179Z,57.37
2023-03-11T15:25:29.634Z,56.60
2023-03-11T15:28:28.118Z,56.05
2023-03-11T15:31:20.142Z,56.67
2023-03-11T15:34:18.755Z,56.71
2023-03-11T15:37:21.743Z,56.13
2023-03-11T15:40:19.815Z,56.53
2023-03-11T15:43:29.747Z,56.89
2023-03-11T15:46:15.665Z,56.28
2023-03-11T15:49:01.455Z,56.54
2023-03-11T15:51:47.366Z,56.35
2023-03-11T15:54:33.445Z,56.57
2023-03-11T15:57:27.093Z,57.05
2023-03-11T16:00:22.743Z,56.91
2023-03-11T16:03:08.914Z,56.71
2023-03-11T16:05:54.925Z,56.54
2023-03-11T16:08:40.738Z,56.20
2023-03-11T16:11:27.188Z,56.53
2023-03-11T16:14:18.062Z,56.06
2023-03-11T16:17:03.827Z,56.24
2023-03-11T16:19:49.813Z,56.21
2023-03-11T16:22:37.024Z,56.46
2023-03-11T16:25:27.347Z,56.45
2023-03-11T16:28:14.506Z,56.10
2023-03-11T16:31:00.688Z,55.92
2023-03-11T16:33:46.442Z,56.20
2023-03-11T16:36:32.408Z,55.85
2023-03-11T16:39:18.566Z,55.85
2023-03-11T16:42:04.611Z,56.05
2023-03-11T16:44:50.768Z,55.95
2023-03-11T16:47:36.662Z,55.55
2023-03-11T16:50:24.385Z,55.48
2023-03-11T16:53:10.424Z,55.13
2023-03-11T16:55:56.805Z,55.60
2023-03-11T16:58:42.860Z,55.54
2023-03-11T17:01:29.216Z,55.31
2023-03-11T17:04:15.339Z,55.38
2023-03-11T17:07:01.317Z,55.79
2023-03-11T17:09:48.237Z,55.83
2023-03-11T17:12:34.326Z,55.76
2023-03-11T17:15:20.865Z,55.79
2023-03-11T17:18:06.977Z,55.37
2023-03-11T17:20:54.053Z,55.54
2023-03-11T17:23:40.034Z,55.34
2023-03-11T17:26:27.767Z,55.35
2023-03-11T17:29:13.471Z,55.21
2023-03-11T17:31:59.933Z,55.21
2023-03-11T17:34:45.919Z,55.12
2023-03-11T17:37:31.985Z,55.29
2023-03-11T17:40:18.575Z,54.83
2023-03-11T17:43:04.742Z,55.06
2023-03-11T17:45:51.076Z,54.92
2023-03-11T17:48:37.637Z,55.31
2023-03-11T17:51:25.861Z,55.31
2023-03-11T17:54:11.734Z,55.47
2023-03-11T17:56:58.712Z,55.40
2023-03-11T17:59:44.646Z,55.53
2023-03-11T18:02:30.888Z,55.49
2023-03-11T18:05:18.757Z,55.67
2023-03-11T18:08:04.808Z,55.91
2023-03-11T18:10:53.167Z,55.78
2023-03-11T18:13:40.542Z,56.06
2023-03-11T18:16:28.975Z,56.02
2023-03-11T18:19:15.077Z,55.83
2023-03-11T18:22:01.327Z,56.43
2023-03-11T18:24:47.707Z,56.23
2023-03-11T18:27:33.636Z,55.99
2023-03-11T18:30:19.986Z,56.11
2023-03-11T18:33:05.880Z,56.26
2023-03-11T18:35:51.987Z,56.13
2023-03-11T18:38:38.170Z,55.91
2023-03-11T18:41:26.117Z,56.22
2023-03-11T18:44:12.293Z,56.19
2023-03-11T18:46:58.180Z,56.12
2023-03-11T18:49:44.470Z,56.22
2023-03-11T18:52:30.922Z,56.26
2023-03-11T18:55:16.912Z,56.54
2023-03-11T18:58:03.058Z,56.42
2023-03-11T19:00:49.880Z,56.45
2023-03-11T19:03:38.709Z,56.44
2023-03-11T19:06:28.309Z,56.30
2023-03-11T19:09:14.745Z,56.41
2023-03-11T19:12:00.473Z,56.15
2023-03-11T19:14:46.616Z,56.48
2023-03-11T19:17:32.504Z,56.31
2023-03-11T19:20:19.321Z,56.22
2023-03-11T19:23:06.327Z,56.58
2023-03-11T19:26:02.449Z,56.69
2023-03-11T19:28:49.354Z,56.80
2023-03-11T19:31:35.591Z,56.73
2023-03-11T19:34:22.408Z,56.93
2023-03-11T19:37:08.369Z,56.99
2023-03-11T19:39:54.246Z,56.86
2023-03-11T19:42:40.265Z,56.81
2023-03-11T19:45:31.204Z,56.72
2023-03-11T19:48:17.449Z,56.64
2023-03-11T19:51:06.098Z,56.52
2023-03-11T19:53:52.608Z,56.70
2023-03-11T19:56:40.433Z,56.31
2023-03-11T19:59:26.335Z,56.56
2023-03-11T20:02:13.152Z,56.36
2023-03-11T20:04:58.978Z,55.92
2023-03-11T20:07:47.728Z,55.77
2023-03-11T20:10:38.600Z,55.50
2023-03-11T20:13:24.683Z,55.76
2023-03-11T20:16:16.059Z,56.00
2023-03-11T20:19:05.684Z,55.92
2023-03-11T20:21:51.920Z,55.92
2023-03-11T20:24:38.549Z,56.29
2023-03-11T20:27:24.511Z,55.68
2023-03-11T20:30:11.139Z,55.70
2023-03-11T20:32:57.236Z,55.80
2023-03-11T20:35:43.448Z,56.04
2023-03-11T20:38:29.485Z,56.13
2023-03-11T20:41:15.320Z,56.07
2023-03-11T20:44:00.994Z,55.85
2023-03-11T20:46:47.109Z,56.24
2023-03-11T20:49:33.066Z,56.19
2023-03-11T20:52:18.812Z,56.20
2023-03-11T20:55:05.092Z,55.92
2023-03-11T20:57:51.443Z,56.24
2023-03-11T21:00:37.941Z,55.77
2023-03-11T21:03:23.991Z,55.62
2023-03-11T21:06:24.628Z,56.02
2023-03-11T21:09:16.188Z,55.48
2023-03-11T21:12:02.374Z,55.69
2023-03-11T21:14:48.210Z,55.73
2023-03-11T21:17:34.704Z,55.76
2023-03-11T21:20:20.915Z,55.79
2023-03-11T21:23:08.813Z,55.99
2023-03-11T21:25:59.520Z,56.04
2023-03-11T21:28:47.079Z,56.27
2023-03-11T21:31:33.972Z,55.77
2023-03-11T21:34:20.208Z,55.65
2023-03-11T21:37:07.196Z,55.86
2023-03-11T21:39:53.255Z,55.99
2023-03-11T21:42:39.989Z,56.14
2023-03-11T21:45:26.065Z,56.32
2023-03-11T21:48:13.677Z,55.58
2023-03-11T21:50:59.518Z,55.89
2023-03-11T21:53:45.953Z,55.90
2023-03-11T21:56:31.816Z,56.12
2023-03-11T21:59:17.733Z,56.34
2023-03-11T22:02:03.892Z,55.85
2023-03-11T22:04:50.851Z,55.58
2023-03-11T22:07:37.090Z,55.85
2023-03-11T22:10:23.568Z,56.03
2023-03-11T22:13:10.584Z,56.07
2023-03-11T22:15:58.486Z,55.91
2023-03-11T22:18:45.408Z,55.93
2023-03-11T22:21:31.651Z,55.57
2023-03-11T22:24:17.250Z,55.68
2023-03-11T22:27:03.185Z,55.54
2023-03-11T22:29:49.551Z,55.78
2023-03-11T22:32:35.794Z,55.61
2023-03-11T22:35:21.707Z,55.75
2023-03-11T22:38:07.413Z,56.00
2023-03-11T22:40:53.086Z,55.89
2023-03-11T22:43:39.503Z,55.98
2023-03-11T22:46:26.063Z,56.11
2023-03-11T22:49:11.861Z,55.71
2023-03-11T22:51:57.804Z,55.90
2023-03-11T22:54:43.954Z,55.71
2023-03-11T22:57:38.586Z,55.33
2023-03-11T23:00:24.714Z,55.53
2023-03-11T23:03:11.753Z,55.70
2023-03-11T23:06:01.764Z,55.66
2023-03-11T23:08:48.270Z,55.72
2023-03-11T23:11:34.522Z,55.88
2023-03-11T23:14:27.941Z,55.78
2023-03-11T23:17:19.617Z,55.93
2023-03-11T23:20:06.599Z,55.91
2023-03-11T23:22:52.511Z,56.01
2023-03-11T23:25:40.707Z,55.97
2023-03-11T23:28:26.336Z,55.73
2023-03-11T23:31:14.068Z,55.90
2023-03-11T23:33:59.655Z,55.89
2023-03-11T23:36:45.304Z,56.00
2023-03-11T23:39:31.873Z,55.72
2023-03-11T23:42:25.325Z,55.92
2023-03-11T23:45:12.062Z,55.78
2023-03-11T23:47:58.058Z,55.60
2023-03-11T23:50:49.128Z,56.05
2023-03-11T23:53:34.796Z,56.01
2023-03-11T23:56:20.987Z,56.36
2023-03-11T23:59:06.963Z,56.58
